sensor_id;sensor_type;location;lat;lon;timestamp;pressure;altitude;pressure_sealevel;temperature;humidity
13312;BME280;34033;48.672;9.376;2023-02-12T00:01:36;100527.53;;;6.84;67.25
13312;BME280;34033;48.672;9.376;2023-02-12T00:04:02;100523.63;;;6.85;67.19
13312;BME280;34033;48.672;9.376;2023-02-12T00:06:27;100521.66;;;6.85;67.07
13312;BME280;34033;48.672;9.376;2023-02-12T00:08:54;100522.78;;;6.84;67.09
13312;BME280;34033;48.672;9.376;2023-02-12T00:11:25;100532.59;;;6.82;67.68
13312;BME280;34033;48.672;9.376;2023-02-12T00:13:51;100533.44;;;6.82;67.15
13312;BME280;34033;48.672;9.376;2023-02-12T00:16:20;100537.66;;;6.80;67.08
13312;BME280;34033;48.672;9.376;2023-02-12T00:18:46;100523.25;;;6.78;68.00
13312;BME280;34033;48.672;9.376;2023-02-12T00:21:12;100530.44;;;6.79;67.20
13312;BME280;34033;48.672;9.376;2023-02-12T00:23:41;100530.94;;;6.81;67.74
13312;BME280;34033;48.672;9.376;2023-02-12T00:26:09;100535.38;;;6.82;67.56
13312;BME280;34033;48.672;9.376;2023-02-12T00:28:36;100541.78;;;6.82;67.28
13312;BME280;34033;48.672;9.376;2023-02-12T00:31:06;100542.38;;;6.79;67.11
13312;BME280;34033;48.672;9.376;2023-02-12T00:33:31;100544.47;;;6.74;66.88
13312;BME280;34033;48.672;9.376;2023-02-12T00:35:57;100532.22;;;6.75;67.88
13312;BME280;34033;48.672;9.376;2023-02-12T00:38:22;100535.81;;;6.75;67.49
13312;BME280;34033;48.672;9.376;2023-02-12T00:40:48;100529.94;;;6.77;68.17
13312;BME280;34033;48.672;9.376;2023-02-12T00:43:13;100532.91;;;6.80;67.83
13312;BME280;34033;48.672;9.376;2023-02-12T00:45:38;100531.59;;;6.78;66.96
13312;BME280;34033;48.672;9.376;2023-02-12T00:48:04;100536.13;;;6.74;67.18
13312;BME280;34033;48.672;9.376;2023-02-12T00:50:29;100543.44;;;6.69;67.02
13312;BME280;34033;48.672;9.376;2023-02-12T00:52:55;100540.97;;;6.68;67.53
13312;BME280;34033;48.672;9.376;2023-02-12T00:55:20;100542.84;;;6.73;67.74
13312;BME280;34033;48.672;9.376;2023-02-12T00:57:45;100556.41;;;6.74;67.82
13312;BME280;34033;48.672;9.376;2023-02-12T01:00:12;100541.06;;;6.77;67.71
13312;BME280;34033;48.672;9.376;2023-02-12T01:02:37;100549.41;;;6.77;67.16
13312;BME280;34033;48.672;9.376;2023-02-12T01:05:03;100551.50;;;6.71;67.33
13312;BME280;34033;48.672;9.376;2023-02-12T01:07:28;100546.94;;;6.75;67.21
13312;BME280;34033;48.672;9.376;2023-02-12T01:09:53;100546.94;;;6.75;67.68
13312;BME280;34033;48.672;9.376;2023-02-12T01:12:19;100543.03;;;6.76;67.81
13312;BME280;34033;48.672;9.376;2023-02-12T01:14:44;100544.66;;;6.77;67.31
13312;BME280;34033;48.672;9.376;2023-02-12T01:17:09;100546.41;;;6.73;67.16
13312;BME280;34033;48.672;9.376;2023-02-12T01:19:35;100539.72;;;6.74;67.47
13312;BME280;34033;48.672;9.376;2023-02-12T01:22:00;100540.56;;;6.75;67.81
13312;BME280;34033;48.672;9.376;2023-02-12T01:24:25;100542.72;;;6.78;67.61
13312;BME280;34033;48.672;9.376;2023-02-12T01:26:50;100534.03;;;6.79;67.32
13312;BME280;34033;48.672;9.376;2023-02-12T01:29:16;100543.22;;;6.80;67.44
13312;BME280;34033;48.672;9.376;2023-02-12T01:31:41;100547.63;;;6.81;67.40
13312;BME280;34033;48.672;9.376;2023-02-12T01:34:09;100549.91;;;6.79;67.64
13312;BME280;34033;48.672;9.376;2023-02-12T01:36:35;100553.84;;;6.78;67.45
13312;BME280;34033;48.672;9.376;2023-02-12T01:39:01;100557.22;;;6.75;66.89
13312;BME280;34033;48.672;9.376;2023-02-12T01:41:35;100553.03;;;6.63;67.42
13312;BME280;34033;48.672;9.376;2023-02-12T01:44:21;100549.66;;;6.66;68.30
13312;BME280;34033;48.672;9.376;2023-02-12T01:46:58;100547.38;;;6.68;68.24
13312;BME280;34033;48.672;9.376;2023-02-12T01:51:58;100538.06;;;6.73;67.95
13312;BME280;34033;48.672;9.376;2023-02-12T01:54:24;100542.19;;;6.76;68.10
13312;BME280;34033;48.672;9.376;2023-02-12T01:56:51;100539.13;;;6.77;67.21
13312;BME280;34033;48.672;9.376;2023-02-12T01:59:18;100539.72;;;6.74;67.22
13312;BME280;34033;48.672;9.376;2023-02-12T02:01:44;100533.16;;;6.70;67.92
13312;BME280;34033;48.672;9.376;2023-02-12T02:04:14;100531.31;;;6.65;68.76
13312;BME280;34033;48.672;9.376;2023-02-12T02:07:01;100531.31;;;6.65;68.00
13312;BME280;34033;48.672;9.376;2023-02-12T02:09:29;100538.53;;;6.66;67.94
13312;BME280;34033;48.672;9.376;2023-02-12T02:11:55;100535.94;;;6.70;68.34
13312;BME280;34033;48.672;9.376;2023-02-12T02:14:40;100538.72;;;6.70;67.73
13312;BME280;34033;48.672;9.376;2023-02-12T02:20:01;100532.56;;;6.59;67.39
13312;BME280;34033;48.672;9.376;2023-02-12T02:31:16;100522.03;;;6.70;68.39
13312;BME280;34033;48.672;9.376;2023-02-12T02:33:56;100515.78;;;6.64;68.46
13312;BME280;34033;48.672;9.376;2023-02-12T02:36:29;100512.00;;;6.60;67.96
13312;BME280;34033;48.672;9.376;2023-02-12T02:39:03;100512.00;;;6.60;68.39
13312;BME280;34033;48.672;9.376;2023-02-12T02:41:38;100520.22;;;6.65;67.73
13312;BME280;34033;48.672;9.376;2023-02-12T02:44:12;100516.31;;;6.66;68.37
13312;BME280;34033;48.672;9.376;2023-02-12T02:46:44;100513.00;;;6.64;68.41
13312;BME280;34033;48.672;9.376;2023-02-12T02:49:22;100514.34;;;6.67;68.32
13312;BME280;34033;48.672;9.376;2023-02-12T02:51:52;100518.44;;;6.69;67.65
13312;BME280;34033;48.672;9.376;2023-02-12T02:54:39;100514.84;;;6.69;67.38
13312;BME280;34033;48.672;9.376;2023-02-12T03:00:46;100510.09;;;6.69;67.49
13312;BME280;34033;48.672;9.376;2023-02-12T03:03:27;100501.19;;;6.59;67.43
13312;BME280;34033;48.672;9.376;2023-02-12T03:05:59;100512.59;;;6.57;67.70
13312;BME280;34033;48.672;9.376;2023-02-12T03:08:30;100512.59;;;6.57;68.50
13312;BME280;34033;48.672;9.376;2023-02-12T03:14:17;100516.91;;;6.63;67.78
13312;BME280;34033;48.672;9.376;2023-02-12T03:16:56;100524.25;;;6.59;67.40
13312;BME280;34033;48.672;9.376;2023-02-12T03:19:25;100517.56;;;6.60;67.43
13312;BME280;34033;48.672;9.376;2023-02-12T03:27:10;100529.03;;;6.67;67.46
13312;BME280;34033;48.672;9.376;2023-02-12T03:29:38;100526.38;;;6.62;67.55
13312;BME280;34033;48.672;9.376;2023-02-12T03:32:10;100533.59;;;6.63;67.48
13312;BME280;34033;48.672;9.376;2023-02-12T03:34:53;100528.53;;;6.65;67.94
13312;BME280;34033;48.672;9.376;2023-02-12T03:37:32;100524.31;;;6.68;67.51
13312;BME280;34033;48.672;9.376;2023-02-12T03:42:38;100528.03;;;6.63;67.55
13312;BME280;34033;48.672;9.376;2023-02-12T03:52:52;100528.47;;;6.57;68.28
13312;BME280;34033;48.672;9.376;2023-02-12T03:55:18;100529.81;;;6.59;68.44
13312;BME280;34033;48.672;9.376;2023-02-12T03:57:46;100524.75;;;6.61;68.95
13312;BME280;34033;48.672;9.376;2023-02-12T04:00:18;100529.50;;;6.61;68.39
13312;BME280;34033;48.672;9.376;2023-02-12T04:02:44;100527.63;;;6.56;68.29
13312;BME280;34033;48.672;9.376;2023-02-12T04:05:36;100529.81;;;6.59;68.93
13312;BME280;34033;48.672;9.376;2023-02-12T04:08:04;100532.56;;;6.59;68.58
13312;BME280;34033;48.672;9.376;2023-02-12T04:11:05;100536.31;;;6.55;68.52
13312;BME280;34033;48.672;9.376;2023-02-12T04:13:42;100537.31;;;6.59;68.87
13312;BME280;34033;48.672;9.376;2023-02-12T04:16:24;100546.16;;;6.61;68.41
13312;BME280;34033;48.672;9.376;2023-02-12T04:18:51;100550.31;;;6.50;68.76
13312;BME280;34033;48.672;9.376;2023-02-12T04:24:31;100553.41;;;6.48;68.73
13312;BME280;34033;48.672;9.376;2023-02-12T04:32:13;100542.88;;;6.59;69.00
13312;BME280;34033;48.672;9.376;2023-02-12T04:34:49;100551.22;;;6.59;69.16
13312;BME280;34033;48.672;9.376;2023-02-12T04:37:29;100558.41;;;6.60;69.33
13312;BME280;34033;48.672;9.376;2023-02-12T04:39:58;100555.94;;;6.58;69.42
13312;BME280;34033;48.672;9.376;2023-02-12T04:42:24;100557.06;;;6.57;69.67
13312;BME280;34033;48.672;9.376;2023-02-12T04:44:50;100551.22;;;6.59;69.66
13312;BME280;34033;48.672;9.376;2023-02-12T04:47:16;100558.72;;;6.58;69.40
13312;BME280;34033;48.672;9.376;2023-02-12T04:49:41;100550.91;;;6.60;69.01
13312;BME280;34033;48.672;9.376;2023-02-12T04:52:07;100554.41;;;6.52;69.70
13312;BME280;34033;48.672;9.376;2023-02-12T04:54:33;100553.41;;;6.48;69.48
13312;BME280;34033;48.672;9.376;2023-02-12T04:56:59;100549.97;;;6.51;69.79
13312;BME280;34033;48.672;9.376;2023-02-12T04:59:25;100559.34;;;6.55;69.87
13312;BME280;34033;48.672;9.376;2023-02-12T05:01:50;100553.16;;;6.58;69.76
13312;BME280;34033;48.672;9.376;2023-02-12T05:04:16;100553.34;;;6.62;69.56
13312;BME280;34033;48.672;9.376;2023-02-12T05:06:43;100559.44;;;6.64;69.01
13312;BME280;34033;48.672;9.376;2023-02-12T05:09:13;100563.03;;;6.64;69.38
13312;BME280;34033;48.672;9.376;2023-02-12T05:11:39;100561.38;;;6.63;69.76
13312;BME280;34033;48.672;9.376;2023-02-12T05:14:04;100557.47;;;6.64;69.96
13312;BME280;34033;48.672;9.376;2023-02-12T05:16:29;100552.44;;;6.66;69.44
13312;BME280;34033;48.672;9.376;2023-02-12T05:18:55;100540.97;;;6.68;69.72
13312;BME280;34033;48.672;9.376;2023-02-12T05:21:21;100549.84;;;6.70;69.75
13312;BME280;34033;48.672;9.376;2023-02-12T05:23:46;100560.31;;;6.73;69.44
13312;BME280;34033;48.672;9.376;2023-02-12T05:26:15;100542.84;;;6.73;69.26
13312;BME280;34033;48.672;9.376;2023-02-12T05:28:41;100548.41;;;6.73;69.32
13312;BME280;34033;48.672;9.376;2023-02-12T05:31:13;100541.19;;;6.72;69.26
13312;BME280;34033;48.672;9.376;2023-02-12T05:33:44;100556.94;;;6.62;69.19
13312;BME280;34033;48.672;9.376;2023-02-12T05:36:13;100556.13;;;6.62;69.64
13312;BME280;34033;48.672;9.376;2023-02-12T05:38:38;100553.03;;;6.63;69.52
13312;BME280;34033;48.672;9.376;2023-02-12T05:41:07;100557.28;;;6.61;69.91
13312;BME280;34033;48.672;9.376;2023-02-12T05:43:32;100561.06;;;6.65;69.59
13312;BME280;34033;48.672;9.376;2023-02-12T05:45:59;100552.44;;;6.66;69.89
13312;BME280;34033;48.672;9.376;2023-02-12T05:48:25;100558.00;;;6.66;69.43
13312;BME280;34033;48.672;9.376;2023-02-12T05:50:50;100554.69;;;6.64;69.75
13312;BME280;34033;48.672;9.376;2023-02-12T05:53:16;100550.25;;;6.63;69.84
13312;BME280;34033;48.672;9.376;2023-02-12T05:55:41;100558.59;;;6.63;69.63
13312;BME280;34033;48.672;9.376;2023-02-12T05:58:06;100556.66;;;6.64;69.05
13312;BME280;34033;48.672;9.376;2023-02-12T06:00:32;100561.91;;;6.65;69.53
13312;BME280;34033;48.672;9.376;2023-02-12T06:02:57;100566.94;;;6.63;69.20
13312;BME280;34033;48.672;9.376;2023-02-12T06:05:22;100560.88;;;6.61;69.13
13312;BME280;34033;48.672;9.376;2023-02-12T06:07:48;100558.72;;;6.58;69.49
13312;BME280;34033;48.672;9.376;2023-02-12T06:10:13;100555.75;;;6.55;69.52
13312;BME280;34033;48.672;9.376;2023-02-12T06:12:38;100553.28;;;6.53;69.62
13312;BME280;34033;48.672;9.376;2023-02-12T06:15:04;100554.94;;;6.54;69.74
13312;BME280;34033;48.672;9.376;2023-02-12T06:17:29;100561.31;;;6.55;69.64
13312;BME280;34033;48.672;9.376;2023-02-12T06:19:55;100563.28;;;6.54;69.79
13312;BME280;34033;48.672;9.376;2023-02-12T06:22:20;100568.81;;;6.54;69.67
13312;BME280;34033;48.672;9.376;2023-02-12T06:24:45;100564.22;;;6.50;69.22
13312;BME280;34033;48.672;9.376;2023-02-12T06:27:10;100565.75;;;6.42;69.50
13312;BME280;34033;48.672;9.376;2023-02-12T06:29:36;100562.38;;;6.32;70.01
13312;BME280;34033;48.672;9.376;2023-02-12T06:32:01;100571.31;;;6.28;70.78
13312;BME280;34033;48.672;9.376;2023-02-12T06:34:26;100574.22;;;6.23;70.68
13312;BME280;34033;48.672;9.376;2023-02-12T06:36:52;100570.13;;;6.21;70.74
13312;BME280;34033;48.672;9.376;2023-02-12T06:39:17;100572.88;;;6.21;70.55
13312;BME280;34033;48.672;9.376;2023-02-12T06:41:43;100569.00;;;6.22;70.75
13312;BME280;34033;48.672;9.376;2023-02-12T06:44:09;100577.31;;;6.22;70.81
13312;BME280;34033;48.672;9.376;2023-02-12T06:46:35;100577.91;;;6.19;71.03
13312;BME280;34033;48.672;9.376;2023-02-12T06:49:00;100582.34;;;6.20;70.96
13312;BME280;34033;48.672;9.376;2023-02-12T06:51:27;100576.78;;;6.20;71.30
13312;BME280;34033;48.672;9.376;2023-02-12T06:53:53;100576.16;;;6.23;71.16
13312;BME280;34033;48.672;9.376;2023-02-12T06:56:21;100570.53;;;6.28;71.46
13312;BME280;34033;48.672;9.376;2023-02-12T06:58:51;100582.66;;;6.32;71.61
13312;BME280;34033;48.672;9.376;2023-02-12T07:01:20;100587.09;;;6.33;71.39
13312;BME280;34033;48.672;9.376;2023-02-12T07:03:52;100588.22;;;6.32;72.03
13312;BME280;34033;48.672;9.376;2023-02-12T07:06:18;100592.31;;;6.35;71.67
13312;BME280;34033;48.672;9.376;2023-02-12T07:08:44;100593.97;;;6.36;71.98
13312;BME280;34033;48.672;9.376;2023-02-12T07:11:10;100584.69;;;6.40;72.04
13312;BME280;34033;48.672;9.376;2023-02-12T07:13:35;100592.19;;;6.40;72.21
13312;BME280;34033;48.672;9.376;2023-02-12T07:16:09;100592.91;;;6.45;71.79
13312;BME280;34033;48.672;9.376;2023-02-12T07:18:35;100581.72;;;6.50;71.35
13312;BME280;34033;48.672;9.376;2023-02-12T07:21:02;100590.13;;;6.59;71.09
13312;BME280;34033;48.672;9.376;2023-02-12T07:23:29;100594.44;;;6.65;71.11
13312;BME280;34033;48.672;9.376;2023-02-12T07:26:00;100594.00;;;6.72;71.14
13312;BME280;34033;48.672;9.376;2023-02-12T07:28:26;100589.97;;;6.78;71.07
13312;BME280;34033;48.672;9.376;2023-02-12T07:30:52;100595.72;;;6.81;70.09
13312;BME280;34033;48.672;9.376;2023-02-12T07:33:18;100596.38;;;7.23;76.53
13312;BME280;34033;48.672;9.376;2023-02-12T07:35:44;100593.53;;;7.36;74.49
13312;BME280;34033;48.672;9.376;2023-02-12T07:38:09;100595.88;;;7.43;72.47
13312;BME280;34033;48.672;9.376;2023-02-12T07:40:35;100593.66;;;7.53;69.94
13312;BME280;34033;48.672;9.376;2023-02-12T07:43:00;100586.31;;;7.58;70.08
13312;BME280;34033;48.672;9.376;2023-02-12T07:45:25;100595.03;;;7.65;69.46
13312;BME280;34033;48.672;9.376;2023-02-12T07:47:51;100596.53;;;7.71;68.38
13312;BME280;34033;48.672;9.376;2023-02-12T07:50:16;100591.66;;;7.76;68.40
13312;BME280;34033;48.672;9.376;2023-02-12T07:52:42;100588.59;;;7.86;67.97
13312;BME280;34033;48.672;9.376;2023-02-12T07:55:07;100581.75;;;7.92;67.89
13312;BME280;34033;48.672;9.376;2023-02-12T07:57:36;100586.03;;;7.99;68.55
13312;BME280;34033;48.672;9.376;2023-02-12T08:00:02;100583.41;;;8.02;68.21
13312;BME280;34033;48.672;9.376;2023-02-12T08:02:28;100592.13;;;8.09;67.54
13312;BME280;34033;48.672;9.376;2023-02-12T08:04:57;100587.25;;;8.15;66.96
13312;BME280;34033;48.672;9.376;2023-02-12T08:07:22;100584.63;;;8.18;66.42
13312;BME280;34033;48.672;9.376;2023-02-12T08:09:48;100579.56;;;8.20;67.36
13312;BME280;34033;48.672;9.376;2023-02-12T08:12:15;100585.47;;;8.27;67.28
13312;BME280;34033;48.672;9.376;2023-02-12T08:14:40;100591.41;;;8.34;68.20
13312;BME280;34033;48.672;9.376;2023-02-12T08:17:05;100578.72;;;8.85;72.54
13312;BME280;34033;48.672;9.376;2023-02-12T08:19:32;100569.50;;;8.93;67.65
13312;BME280;34033;48.672;9.376;2023-02-12T08:21:58;100578.72;;;8.94;66.24
13312;BME280;34033;48.672;9.376;2023-02-12T08:24:23;100576.91;;;9.06;66.08
13312;BME280;34033;48.672;9.376;2023-02-12T08:26:49;100576.91;;;9.06;64.42
13312;BME280;34033;48.672;9.376;2023-02-12T08:29:18;100575.75;;;9.16;64.77
13312;BME280;34033;48.672;9.376;2023-02-12T08:31:46;100580.84;;;9.23;64.37
13312;BME280;34033;48.672;9.376;2023-02-12T08:34:21;100583.94;;;9.21;63.80
13312;BME280;34033;48.672;9.376;2023-02-12T08:36:48;100575.75;;;9.16;64.28
13312;BME280;34033;48.672;9.376;2023-02-12T08:39:15;100575.91;;;9.28;64.70
13312;BME280;34033;48.672;9.376;2023-02-12T08:41:41;100572.94;;;9.42;63.77
13312;BME280;34033;48.672;9.376;2023-02-12T08:44:07;100574.72;;;9.38;63.55
13312;BME280;34033;48.672;9.376;2023-02-12T08:46:35;100566.38;;;9.38;63.15
13312;BME280;34033;48.672;9.376;2023-02-12T08:49:03;100566.19;;;9.43;63.52
13312;BME280;34033;48.672;9.376;2023-02-12T08:51:32;100572.28;;;9.36;63.18
13312;BME280;34033;48.672;9.376;2023-02-12T08:54:00;100576.09;;;9.32;62.99
13312;BME280;34033;48.672;9.376;2023-02-12T08:56:27;100570.47;;;9.40;64.35
13312;BME280;34033;48.672;9.376;2023-02-12T08:58:55;100567.47;;;9.54;66.28
13312;BME280;34033;48.672;9.376;2023-02-12T09:01:22;100569.44;;;9.62;64.64
13312;BME280;34033;48.672;9.376;2023-02-12T09:03:48;100565.13;;;9.73;64.26
13312;BME280;34033;48.672;9.376;2023-02-12T09:06:16;100565.00;;;9.61;63.85
13312;BME280;34033;48.672;9.376;2023-02-12T09:08:43;100559.06;;;9.71;64.14
13312;BME280;34033;48.672;9.376;2023-02-12T09:11:14;100571.53;;;9.74;63.61
13312;BME280;34033;48.672;9.376;2023-02-12T09:13:45;100567.56;;;9.83;63.36
13312;BME280;34033;48.672;9.376;2023-02-12T09:16:12;100575.47;;;9.81;62.95
13312;BME280;34033;48.672;9.376;2023-02-12T09:18:37;100565.91;;;9.82;63.11
13312;BME280;34033;48.672;9.376;2023-02-12T09:21:14;100570.34;;;9.83;63.28
13312;BME280;34033;48.672;9.376;2023-02-12T09:23:42;100570.69;;;9.82;63.72
13312;BME280;34033;48.672;9.376;2023-02-12T09:26:09;100574.16;;;9.79;64.21
13312;BME280;34033;48.672;9.376;2023-02-12T09:28:35;100573.28;;;9.87;63.64
13312;BME280;34033;48.672;9.376;2023-02-12T09:31:06;100570.88;;;10.15;70.36
13312;BME280;34033;48.672;9.376;2023-02-12T09:33:32;100573.03;;;10.09;65.94
13312;BME280;34033;48.672;9.376;2023-02-12T09:36:03;100569.09;;;10.19;64.79
13312;BME280;34033;48.672;9.376;2023-02-12T09:38:28;100574.50;;;10.24;64.36
13312;BME280;34033;48.672;9.376;2023-02-12T09:44:10;100566.66;;;10.38;64.84
13312;BME280;34033;48.672;9.376;2023-02-12T09:46:57;100567.03;;;10.36;65.97
13312;BME280;34033;48.672;9.376;2023-02-12T09:52:04;100564.16;;;10.74;63.97
13312;BME280;34033;48.672;9.376;2023-02-12T09:54:37;100560.00;;;10.80;64.00
13312;BME280;34033;48.672;9.376;2023-02-12T09:57:16;100559.91;;;10.89;64.43
13312;BME280;34033;48.672;9.376;2023-02-12T09:59:51;100566.47;;;10.93;64.50
13312;BME280;34033;48.672;9.376;2023-02-12T10:02:19;100568.22;;;10.98;64.34
13312;BME280;34033;48.672;9.376;2023-02-12T10:04:46;100572.34;;;11.00;64.35
13312;BME280;34033;48.672;9.376;2023-02-12T10:12:39;100574.03;;;10.93;64.22
13312;BME280;34033;48.672;9.376;2023-02-12T10:17:39;100573.38;;;10.96;64.59
13312;BME280;34033;48.672;9.376;2023-02-12T10:23:12;100564.66;;;11.09;65.83
13312;BME280;34033;48.672;9.376;2023-02-12T10:25:52;100563.22;;;11.90;77.19
13312;BME280;34033;48.672;9.376;2023-02-12T10:28:25;100567.22;;;12.01;70.71
13312;BME280;34033;48.672;9.376;2023-02-12T10:30:58;100561.97;;;11.66;61.68
13312;BME280;34033;48.672;9.376;2023-02-12T10:33:40;100567.03;;;11.52;62.16
13312;BME280;34033;48.672;9.376;2023-02-12T10:36:17;100566.88;;;11.37;62.37
13312;BME280;34033;48.672;9.376;2023-02-12T10:38:50;100560.56;;;11.27;63.17
13312;BME280;34033;48.672;9.376;2023-02-12T10:41:17;100549.91;;;11.21;63.15
13312;BME280;34033;48.672;9.376;2023-02-12T10:43:43;100553.19;;;11.23;63.91
13312;BME280;34033;48.672;9.376;2023-02-12T10:46:13;100555.59;;;11.12;63.05
13312;BME280;34033;48.672;9.376;2023-02-12T10:48:41;100551.97;;;11.12;64.09
13312;BME280;34033;48.672;9.376;2023-02-12T10:53:38;100551.72;;;11.05;64.28
13312;BME280;34033;48.672;9.376;2023-02-12T10:58:35;100545.22;;;10.51;64.47
13312;BME280;34033;48.672;9.376;2023-02-12T11:01:01;100546.34;;;10.58;65.19
13312;BME280;34033;48.672;9.376;2023-02-12T11:03:29;100546.38;;;10.70;65.66
13312;BME280;34033;48.672;9.376;2023-02-12T11:06:14;100540.13;;;10.73;65.55
13312;BME280;34033;48.672;9.376;2023-02-12T11:08:41;100536.41;;;10.81;65.42
13312;BME280;34033;48.672;9.376;2023-02-12T11:11:27;100529.88;;;10.98;69.15
13312;BME280;34033;48.672;9.376;2023-02-12T11:14:05;100526.50;;;11.05;65.39
13312;BME280;34033;48.672;9.376;2023-02-12T11:16:33;100527.56;;;10.79;64.62
13312;BME280;34033;48.672;9.376;2023-02-12T11:19:02;100533.84;;;10.76;65.12
13312;BME280;34033;48.672;9.376;2023-02-12T11:21:30;100530.38;;;10.79;65.42
13312;BME280;34033;48.672;9.376;2023-02-12T11:23:56;100528.63;;;10.87;65.41
13312;BME280;34033;48.672;9.376;2023-02-12T11:26:27;100531.44;;;10.87;65.31
13312;BME280;34033;48.672;9.376;2023-02-12T11:28:58;100528.78;;;10.91;65.13
13312;BME280;34033;48.672;9.376;2023-02-12T11:31:31;100520.84;;;10.93;64.27
13312;BME280;34033;48.672;9.376;2023-02-12T11:36:28;100524.41;;;11.02;64.04
13312;BME280;34033;48.672;9.376;2023-02-12T11:38:56;100521.63;;;11.02;64.62
13312;BME280;34033;48.672;9.376;2023-02-12T11:41:34;100530.81;;;10.81;66.92
13312;BME280;34033;48.672;9.376;2023-02-12T11:44:11;100530.56;;;10.74;65.23
13312;BME280;34033;48.672;9.376;2023-02-12T11:46:39;100536.56;;;10.85;66.38
13312;BME280;34033;48.672;9.376;2023-02-12T11:49:18;100529.41;;;10.96;67.14
13312;BME280;34033;48.672;9.376;2023-02-12T11:51:46;100530.97;;;11.06;66.19
13312;BME280;34033;48.672;9.376;2023-02-12T11:54:19;100523.50;;;11.10;66.10
13312;BME280;34033;48.672;9.376;2023-02-12T11:56:46;100517.91;;;11.10;65.54
13312;BME280;34033;48.672;9.376;2023-02-12T11:59:42;100519.44;;;11.07;65.57
13312;BME280;34033;48.672;9.376;2023-02-12T12:02:21;100517.44;;;11.08;65.28
13312;BME280;34033;48.672;9.376;2023-02-12T12:04:51;100520.34;;;10.78;65.42
13312;BME280;34033;48.672;9.376;2023-02-12T12:07:23;100512.41;;;10.60;65.13
13312;BME280;34033;48.672;9.376;2023-02-12T12:13:03;100514.03;;;10.40;66.85
13312;BME280;34033;48.672;9.376;2023-02-12T12:15:33;100516.50;;;10.41;66.95
13312;BME280;34033;48.672;9.376;2023-02-12T12:21:38;100515.06;;;10.56;66.88
13312;BME280;34033;48.672;9.376;2023-02-12T12:26:39;100507.78;;;10.84;67.05
13312;BME280;34033;48.672;9.376;2023-02-12T12:29:23;100506.41;;;10.91;66.27
13312;BME280;34033;48.672;9.376;2023-02-12T12:31:53;100506.81;;;11.01;65.65
13312;BME280;34033;48.672;9.376;2023-02-12T12:34:23;100502.34;;;11.00;65.62
13312;BME280;34033;48.672;9.376;2023-02-12T12:40:03;100498.34;;;11.22;65.98
13312;BME280;34033;48.672;9.376;2023-02-12T12:42:47;100500.59;;;11.28;65.60
13312;BME280;34033;48.672;9.376;2023-02-12T12:46:05;100488.63;;;11.40;64.78
13312;BME280;34033;48.672;9.376;2023-02-12T12:53:56;100490.44;;;11.36;63.63
13312;BME280;34033;48.672;9.376;2023-02-12T13:04:46;100484.16;;;11.84;63.76
13312;BME280;34033;48.672;9.376;2023-02-12T13:16:25;100473.91;;;12.92;61.25
13312;BME280;34033;48.672;9.376;2023-02-12T13:19:15;100473.06;;;12.92;59.98
13312;BME280;34033;48.672;9.376;2023-02-12T13:22:23;100468.50;;;13.00;60.03
13312;BME280;34033;48.672;9.376;2023-02-12T13:25:02;100464.31;;;12.93;59.31
13312;BME280;34033;48.672;9.376;2023-02-12T13:27:38;100464.66;;;12.92;59.62
13312;BME280;34033;48.672;9.376;2023-02-12T13:32:44;100459.94;;;12.96;59.50
13312;BME280;34033;48.672;9.376;2023-02-12T13:35:18;100457.34;;;13.03;59.87
13312;BME280;34033;48.672;9.376;2023-02-12T13:37:51;100455.09;;;13.09;59.33
13312;BME280;34033;48.672;9.376;2023-02-12T13:40:20;100452.63;;;13.19;60.23
13312;BME280;34033;48.672;9.376;2023-02-12T13:45:25;100451.75;;;13.62;58.73
13312;BME280;34033;48.672;9.376;2023-02-12T13:48:19;100448.69;;;13.83;57.75
13312;BME280;34033;48.672;9.376;2023-02-12T13:51:09;100446.00;;;14.06;57.81
13312;BME280;34033;48.672;9.376;2023-02-12T13:58:56;100439.78;;;14.47;55.90
13312;BME280;34033;48.672;9.376;2023-02-12T14:01:39;100435.66;;;14.60;55.94
13312;BME280;34033;48.672;9.376;2023-02-12T14:06:57;100434.94;;;14.67;55.04
13312;BME280;34033;48.672;9.376;2023-02-12T14:12:16;100425.34;;;14.68;54.84
13312;BME280;34033;48.672;9.376;2023-02-12T14:15:36;100423.03;;;14.74;54.06
13312;BME280;34033;48.672;9.376;2023-02-12T14:20:31;100431.28;;;14.82;53.95
13312;BME280;34033;48.672;9.376;2023-02-12T14:23:23;100419.25;;;14.85;52.88
13312;BME280;34033;48.672;9.376;2023-02-12T14:26:13;100418.13;;;14.90;53.12
13312;BME280;34033;48.672;9.376;2023-02-12T14:33:43;100410.72;;;15.01;52.37
13312;BME280;34033;48.672;9.376;2023-02-12T14:41:26;100401.41;;;15.20;51.46
13312;BME280;34033;48.672;9.376;2023-02-12T14:49:35;100393.84;;;15.24;50.94
13312;BME280;34033;48.672;9.376;2023-02-12T14:52:06;100389.69;;;15.18;50.45
13312;BME280;34033;48.672;9.376;2023-02-12T14:54:53;100388.56;;;15.22;50.47
13312;BME280;34033;48.672;9.376;2023-02-12T14:57:25;100385.41;;;15.69;62.08
13312;BME280;34033;48.672;9.376;2023-02-12T15:02:46;100382.16;;;16.20;52.51
13312;BME280;34033;48.672;9.376;2023-02-12T15:07:59;100376.31;;;16.65;48.04
13312;BME280;34033;48.672;9.376;2023-02-12T15:10:29;100377.19;;;16.70;46.92
13312;BME280;34033;48.672;9.376;2023-02-12T15:13:06;100385.78;;;16.50;48.70
13312;BME280;34033;48.672;9.376;2023-02-12T15:15:48;100383.63;;;16.40;48.49
13312;BME280;34033;48.672;9.376;2023-02-12T15:18:23;100388.22;;;16.22;47.43
13312;BME280;34033;48.672;9.376;2023-02-12T15:21:08;100389.81;;;15.93;48.05
13312;BME280;34033;48.672;9.376;2023-02-12T15:23:40;100387.25;;;15.84;49.13
13312;BME280;34033;48.672;9.376;2023-02-12T15:26:12;100382.38;;;15.81;48.93
13312;BME280;34033;48.672;9.376;2023-02-12T15:28:38;100387.94;;;15.78;49.00
13312;BME280;34033;48.672;9.376;2023-02-12T15:31:05;100389.94;;;15.77;49.12
13312;BME280;34033;48.672;9.376;2023-02-12T15:33:38;100384.22;;;15.70;49.27
13312;BME280;34033;48.672;9.376;2023-02-12T15:36:07;100382.91;;;15.91;52.91
13312;BME280;34033;48.672;9.376;2023-02-12T15:38:36;100386.56;;;15.91;50.46